Kalama, Washington
Current Conditions -  °F | °C
As of 4:15 AM on Saturday 20 Dec 2014 (Local Time) from KKLS Reporting Station
Overcast Overcast  
Wind Chill:   Ceiling: 1900
Heat Index:   Visibility: 8mi
Dew Point:   Wind: 10mph
Humidity: 82%   Direction: 160°SSE
Pressure: 29.79"   Gusts: 22mph
Location:  46.01°N, 122.84°W
Report Text: KKLS 201215Z 16009G19KT 8SM OVC019 09/06 A2979 RMK AO1 P0002
Loading
Personal Weather Stations






























Interactive Weather Map New forecast layout! Learn more

10-Day Weather Forecast

Advertisements
Track Severe Weather on mobile